Terminal Aerodrome Forecast
Issued by NWS

Home | Current Version | Previous Version | Graphics & Text | Print | Product List | Glossary On
Versions: 1 2 3 4 5 6 7 8 9 10 11 12 13 14 15 16 17 18 19 20 21 22 23 24 25 26 27
410
FTUS43 KBIS 031726
TAFMOT
TAF
KMOT 031726Z 0318/0418 18012KT P6SM BKN250
     FM032200 19011KT P6SM VCSH OVC015
     FM040200 22012G21KT P6SM OVC010
     FM041200 27010KT P6SM BKN015
     FM041400 25008KT P6SM BKN050=

USA.gov is the U.S. government's official web portal to all federal, state and local government web resources and services.